Terminal Aerodrome Forecast
Issued by NWS

Home | Current Version | Previous Version | Text Only | Print | Product List | Glossary On
Versions: 1 2 3 4 5 6 7 8 9 10 11 12 13 14 15 16 17 18 19 20
000
FTUS46 KSGX 280807 AAA
TAFCRQ
TAF AMD
KCRQ 280807Z 2808/2906 18003KT P6SM BKN012
     FM281500 VRB04KT P6SM BKN010
     FM281800 25009KT P6SM SCT010
     FM290300 VRB03KT P6SM BKN011=

USA.gov is the U.S. government's official web portal to all federal, state and local government web resources and services.